Hall, Indiana
Current Conditions -  °F | °C
As of 10:35 PM on Sunday 25 Jan 2015 (Local Time) from KHNB Reporting Station
Overcast Overcast  
Wind Chill: 24°   Ceiling: 600
Heat Index: 34°   Visibility: 8mi
Dew Point: 28°   Wind: 16mph
Humidity: 81%   Direction: 340°NNW
Pressure: 29.77"   Gusts: 22mph
Location:  38.4175°N, 86.9656°W
Report Text: KHNB 260435Z AUTO 34014G19KT 8SM OVC006 01/M02 A2977 RMK AO1
Loading
Personal Weather Stations






























Interactive Weather Map New forecast layout! Learn more

10-Day Weather Forecast

Advertisements
Track Severe Weather on mobile